createdAt,value
2019-05-20T00:00:03.210Z,4.90
2019-05-20T00:02:32.576Z,6.30
2019-05-20T00:05:01.931Z,5.37
2019-05-20T00:07:31.287Z,5.63
2019-05-20T00:10:00.651Z,5.13
2019-05-20T00:12:30.029Z,5.20
2019-05-20T00:14:59.347Z,5.10
2019-05-20T00:17:28.764Z,9.80
2019-05-20T00:19:58.095Z,6.23
2019-05-20T00:22:27.467Z,6.00
2019-05-20T00:24:56.812Z,4.80
2019-05-20T00:27:26.184Z,5.50
2019-05-20T00:29:55.560Z,5.20
2019-05-20T00:32:38.821Z,5.40
2019-05-20T00:34:55.910Z,7.97
2019-05-20T00:37:25.291Z,8.13
2019-05-20T00:39:54.657Z,6.90
2019-05-20T00:42:24.022Z,6.83
2019-05-20T00:44:53.369Z,7.43
2019-05-20T00:47:22.741Z,7.80
2019-05-20T00:49:52.084Z,8.20
2019-05-20T00:52:21.440Z,6.63
2019-05-20T00:54:50.780Z,7.80
2019-05-20T00:57:20.258Z,6.23
2019-05-20T00:59:49.590Z,7.17
2019-05-20T01:02:18.953Z,5.67
2019-05-20T01:04:48.241Z,4.87
2019-05-20T01:07:17.606Z,4.90
2019-05-20T01:09:47.005Z,6.03
2019-05-20T01:12:16.423Z,7.67
2019-05-20T01:14:45.722Z,5.43
2019-05-20T01:17:15.102Z,5.37
2019-05-20T01:19:44.455Z,6.83
2019-05-20T01:22:13.820Z,6.50
2019-05-20T01:24:43.168Z,7.00
2019-05-20T01:27:12.538Z,7.20
2019-05-20T01:29:41.881Z,6.07
2019-05-20T01:32:11.258Z,5.70
2019-05-20T01:34:40.600Z,7.10
2019-05-20T01:37:09.981Z,5.77
2019-05-20T01:39:39.364Z,5.30
2019-05-20T01:42:08.667Z,4.27
2019-05-20T01:44:38.051Z,4.63
2019-05-20T01:47:07.423Z,4.30
2019-05-20T01:49:36.987Z,5.90
2019-05-20T01:52:06.276Z,5.43
2019-05-20T01:54:35.628Z,6.30
2019-05-20T01:57:04.993Z,6.60
2019-05-20T01:59:34.332Z,5.00
2019-05-20T02:02:03.720Z,5.17
2019-05-20T02:04:33.061Z,5.70
2019-05-20T02:07:02.470Z,5.70
2019-05-20T02:09:31.807Z,5.83
2019-05-20T02:12:01.168Z,4.97
2019-05-20T02:14:33.399Z,5.30
2019-05-20T02:17:02.944Z,5.23
2019-05-20T02:19:32.408Z,5.17
2019-05-20T02:22:01.678Z,5.20
2019-05-20T02:24:31.071Z,5.50
2019-05-20T02:27:00.417Z,5.47
2019-05-20T02:29:29.774Z,5.00
2019-05-20T02:31:59.109Z,6.17
2019-05-20T02:34:28.472Z,7.00
2019-05-20T02:36:57.820Z,6.00
2019-05-20T02:39:27.203Z,5.37
2019-05-20T02:41:56.548Z,6.17
2019-05-20T02:44:25.920Z,4.97
2019-05-20T02:46:55.267Z,5.37
2019-05-20T02:49:24.653Z,6.43
2019-05-20T02:51:54.074Z,4.30
2019-05-20T02:54:23.457Z,5.57
2019-05-20T02:56:52.785Z,6.20
2019-05-20T02:59:22.144Z,7.17
2019-05-20T03:01:51.488Z,7.60
2019-05-20T03:04:20.851Z,5.33
2019-05-20T03:06:50.192Z,4.40
2019-05-20T03:09:19.593Z,4.90
2019-05-20T03:11:48.897Z,5.50
2019-05-20T03:14:18.252Z,4.27
2019-05-20T03:16:47.602Z,4.13
2019-05-20T03:19:16.965Z,4.97
2019-05-20T03:21:46.228Z,6.30
2019-05-20T03:24:15.596Z,3.47
2019-05-20T03:26:44.932Z,4.50
2019-05-20T03:29:14.338Z,4.10
2019-05-20T03:31:43.633Z,4.60
2019-05-20T03:34:42.278Z,4.37
2019-05-20T03:36:44.024Z,4.97
2019-05-20T03:39:13.451Z,5.00
2019-05-20T03:41:43.324Z,5.13
2019-05-20T03:44:12.709Z,5.07
2019-05-20T03:46:42.181Z,4.00
2019-05-20T03:49:11.560Z,4.40
2019-05-20T03:51:40.927Z,3.97
2019-05-20T03:54:10.315Z,4.27
2019-05-20T03:56:39.678Z,4.90
2019-05-20T03:59:09.066Z,3.53
2019-05-20T04:01:38.446Z,4.50
2019-05-20T04:04:07.833Z,4.63
2019-05-20T04:06:37.206Z,4.13
2019-05-20T04:09:07.647Z,4.07
2019-05-20T04:11:37.031Z,4.43
2019-05-20T04:14:06.414Z,4.93
2019-05-20T04:16:35.778Z,8.83
2019-05-20T04:19:05.164Z,4.63
2019-05-20T04:21:34.521Z,5.17
2019-05-20T04:24:03.927Z,8.37
2019-05-20T04:26:33.278Z,5.27
2019-05-20T04:29:03.066Z,5.03
2019-05-20T04:31:32.423Z,5.67
2019-05-20T04:34:02.008Z,7.20
2019-05-20T04:36:31.575Z,5.30
2019-05-20T04:39:00.987Z,5.00
2019-05-20T04:41:30.371Z,3.80
2019-05-20T04:43:59.762Z,5.10
2019-05-20T04:46:29.125Z,4.60
2019-05-20T04:48:58.516Z,5.73
2019-05-20T04:51:27.875Z,8.53
2019-05-20T04:53:57.252Z,5.17
2019-05-20T04:56:29.255Z,4.10
2019-05-20T04:58:57.676Z,5.90
2019-05-20T05:01:27.038Z,5.60
2019-05-20T05:03:56.419Z,6.47
2019-05-20T05:06:25.900Z,5.43
2019-05-20T05:08:55.304Z,4.87
2019-05-20T05:11:24.671Z,5.50
2019-05-20T05:13:54.395Z,4.10
2019-05-20T05:16:23.750Z,4.83
2019-05-20T05:18:53.120Z,4.33
2019-05-20T05:21:22.522Z,7.17
2019-05-20T05:23:59.352Z,5.27
2019-05-20T05:26:23.008Z,4.60
2019-05-20T05:28:52.370Z,5.33
2019-05-20T05:31:21.751Z,6.57
2019-05-20T05:33:54.236Z,5.40
2019-05-20T05:36:22.155Z,5.40
2019-05-20T05:38:51.510Z,5.17
2019-05-20T05:41:20.937Z,5.97
2019-05-20T05:43:50.306Z,5.63
2019-05-20T05:46:19.696Z,5.80
2019-05-20T05:48:49.043Z,4.40
2019-05-20T05:51:18.483Z,6.10
2019-05-20T05:53:47.853Z,5.03
2019-05-20T05:56:17.278Z,5.63
2019-05-20T05:58:46.645Z,5.83
2019-05-20T06:01:16.070Z,7.20
2019-05-20T06:03:45.390Z,6.40
2019-05-20T06:06:14.783Z,6.43
2019-05-20T06:08:44.153Z,6.23
2019-05-20T06:11:13.539Z,8.57
2019-05-20T06:13:42.904Z,5.10
2019-05-20T06:16:12.295Z,5.00
2019-05-20T06:18:41.678Z,6.73
2019-05-20T06:21:11.071Z,4.73
2019-05-20T06:23:40.438Z,6.60
2019-05-20T06:26:09.845Z,7.87
2019-05-20T06:28:39.219Z,6.57
2019-05-20T06:31:08.596Z,6.80
2019-05-20T06:33:37.987Z,5.03
2019-05-20T06:36:07.371Z,5.40
2019-05-20T06:38:40.771Z,6.07
2019-05-20T06:41:10.192Z,7.00
2019-05-20T06:43:39.671Z,5.43
2019-05-20T06:46:09.066Z,6.73
2019-05-20T06:48:38.835Z,6.40
2019-05-20T06:51:08.236Z,5.73
2019-05-20T06:53:37.609Z,4.63
2019-05-20T06:56:06.998Z,4.50
2019-05-20T06:58:36.375Z,7.00
2019-05-20T07:01:05.783Z,7.53
2019-05-20T07:03:35.711Z,9.03
2019-05-20T07:06:05.107Z,6.20
2019-05-20T07:08:34.501Z,7.43
2019-05-20T07:11:03.891Z,7.20
2019-05-20T07:13:33.298Z,6.07
2019-05-20T07:16:02.770Z,6.23
2019-05-20T07:18:32.107Z,5.43
2019-05-20T07:21:01.511Z,5.57
2019-05-20T07:23:30.875Z,8.27
2019-05-20T07:26:00.272Z,8.23
2019-05-20T07:28:29.646Z,7.47
2019-05-20T07:30:59.162Z,7.17
2019-05-20T07:33:28.619Z,8.20
2019-05-20T07:35:58.020Z,10.97
2019-05-20T07:38:27.391Z,8.20
2019-05-20T07:40:56.813Z,5.83
2019-05-20T07:43:26.278Z,6.93
2019-05-20T07:45:55.672Z,6.90
2019-05-20T07:48:25.177Z,5.77
2019-05-20T07:50:54.927Z,6.77
2019-05-20T07:53:24.801Z,6.70
2019-05-20T07:56:00.442Z,6.90
2019-05-20T07:58:33.678Z,7.30
2019-05-20T08:01:03.356Z,7.87
2019-05-20T08:03:32.706Z,7.63
2019-05-20T08:06:02.148Z,8.47
2019-05-20T08:08:31.711Z,10.10
2019-05-20T08:11:01.032Z,7.50
2019-05-20T08:13:30.527Z,8.07
2019-05-20T08:15:59.867Z,10.70
2019-05-20T08:18:29.364Z,8.57
2019-05-20T08:20:58.721Z,9.70
2019-05-20T08:23:28.114Z,9.27
2019-05-20T08:25:57.463Z,8.20
2019-05-20T08:28:26.952Z,13.40
2019-05-20T08:30:56.394Z,10.67
2019-05-20T08:33:25.730Z,11.00
2019-05-20T08:35:55.116Z,12.87
2019-05-20T08:38:24.711Z,9.57
2019-05-20T08:40:54.089Z,12.27
2019-05-20T08:43:23.471Z,9.90
2019-05-20T08:45:52.863Z,12.60
2019-05-20T08:48:22.275Z,12.30
2019-05-20T08:50:51.618Z,13.30
2019-05-20T08:53:21.024Z,11.27
2019-05-20T08:55:50.411Z,10.23
2019-05-20T08:58:19.793Z,12.30
2019-05-20T09:00:49.963Z,10.07
2019-05-20T09:03:19.345Z,10.30
2019-05-20T09:05:48.703Z,11.20
2019-05-20T09:08:18.091Z,9.33
2019-05-20T09:10:47.450Z,12.87
2019-05-20T09:13:16.847Z,11.83
2019-05-20T09:15:46.614Z,10.57
2019-05-20T09:18:15.989Z,10.70
2019-05-20T09:20:45.380Z,14.37
2019-05-20T09:23:14.760Z,21.97
2019-05-20T09:25:44.118Z,10.67
2019-05-20T09:28:13.511Z,11.57
2019-05-20T09:30:43.849Z,11.10
2019-05-20T09:33:13.222Z,16.70
2019-05-20T09:35:42.980Z,14.80
2019-05-20T09:38:20.415Z,14.40
2019-05-20T09:40:46.573Z,13.70
2019-05-20T09:43:16.076Z,14.33
2019-05-20T09:45:45.549Z,14.50
2019-05-20T09:48:15.015Z,13.00
2019-05-20T09:50:44.395Z,15.13
2019-05-20T09:53:13.784Z,14.20
2019-05-20T09:55:43.175Z,14.90
2019-05-20T09:58:12.587Z,16.70
2019-05-20T10:00:41.965Z,18.90
2019-05-20T10:03:11.391Z,15.20
2019-05-20T10:05:40.756Z,19.53
2019-05-20T10:08:10.181Z,15.67
2019-05-20T10:10:39.544Z,16.77
2019-05-20T10:13:09.339Z,13.10
2019-05-20T10:15:38.834Z,13.27
2019-05-20T10:18:08.300Z,16.37
2019-05-20T10:20:37.690Z,14.13
2019-05-20T10:23:07.227Z,13.50
2019-05-20T10:25:36.598Z,17.53
2019-05-20T10:28:06.093Z,15.17
2019-05-20T10:30:35.463Z,13.27
2019-05-20T10:33:09.086Z,16.03
2019-05-20T10:35:36.087Z,14.40
2019-05-20T10:38:05.517Z,14.73
2019-05-20T10:40:34.906Z,13.80
2019-05-20T10:43:04.362Z,15.57
2019-05-20T10:45:34.721Z,12.97
2019-05-20T10:48:05.316Z,16.50
2019-05-20T10:50:35.158Z,16.03
2019-05-20T10:53:04.556Z,15.13
2019-05-20T10:55:33.919Z,16.13
2019-05-20T10:58:03.407Z,16.30
2019-05-20T11:00:32.826Z,11.37
2019-05-20T11:03:02.386Z,20.27
2019-05-20T11:05:31.962Z,14.37
2019-05-20T11:08:01.334Z,14.57
2019-05-20T11:10:30.727Z,15.13
2019-05-20T11:13:00.331Z,13.57
2019-05-20T11:15:29.722Z,13.70
2019-05-20T11:17:59.096Z,13.20
2019-05-20T11:20:28.373Z,22.30
2019-05-20T11:23:00.853Z,18.60
2019-05-20T11:25:28.788Z,17.70
2019-05-20T11:27:58.143Z,16.63
2019-05-20T11:30:27.569Z,16.27
2019-05-20T11:32:56.926Z,14.43
2019-05-20T11:35:26.317Z,13.30
2019-05-20T11:37:55.700Z,18.13
2019-05-20T11:40:25.110Z,15.37
2019-05-20T11:42:54.510Z,13.17
2019-05-20T11:45:23.909Z,13.40
2019-05-20T11:47:53.316Z,15.43
2019-05-20T11:50:22.815Z,15.17
2019-05-20T11:52:52.191Z,12.57
2019-05-20T11:55:21.711Z,12.23
2019-05-20T11:57:51.051Z,15.37
2019-05-20T12:00:20.530Z,14.03
2019-05-20T12:02:49.908Z,15.50
2019-05-20T12:05:19.318Z,22.53
2019-05-20T12:07:48.692Z,19.13
2019-05-20T12:10:18.191Z,22.33
2019-05-20T12:12:47.559Z,18.00
2019-05-20T12:15:17.099Z,20.07
2019-05-20T12:17:46.463Z,22.17
2019-05-20T12:20:16.064Z,13.20
2019-05-20T12:22:45.439Z,28.10
2019-05-20T12:25:14.831Z,14.00
2019-05-20T12:27:44.200Z,17.87
2019-05-20T12:30:13.797Z,11.43
2019-05-20T12:32:43.147Z,8.00
2019-05-20T12:35:12.548Z,6.57
2019-05-20T12:37:45.531Z,5.87
2019-05-20T12:40:14.538Z,14.80
2019-05-20T12:42:43.892Z,8.50
2019-05-20T12:45:13.283Z,5.53
2019-05-20T12:47:42.647Z,7.47
2019-05-20T12:50:13.143Z,8.80
2019-05-20T12:52:42.503Z,7.53
2019-05-20T12:55:12.145Z,7.10
2019-05-20T12:57:41.607Z,6.83
2019-05-20T13:00:12.693Z,7.13
2019-05-20T13:02:42.150Z,7.53
2019-05-20T13:05:11.669Z,9.47
2019-05-20T13:07:41.038Z,8.20
2019-05-20T13:10:27.632Z,8.80
2019-05-20T13:12:42.045Z,7.90
2019-05-20T13:15:12.267Z,8.00
2019-05-20T13:17:44.874Z,8.40
2019-05-20T13:20:12.787Z,10.70
2019-05-20T13:22:42.175Z,9.97
2019-05-20T13:25:12.263Z,6.10
2019-05-20T13:27:41.624Z,8.70
2019-05-20T13:30:12.134Z,6.17
2019-05-20T13:32:41.490Z,7.73
2019-05-20T13:35:11.280Z,7.57
2019-05-20T13:37:40.646Z,6.63
2019-05-20T13:40:10.681Z,5.90
2019-05-20T13:42:40.027Z,5.77
2019-05-20T13:45:09.635Z,5.20
2019-05-20T13:47:39.002Z,5.90
2019-05-20T13:50:08.835Z,7.03
2019-05-20T13:52:38.202Z,7.00
2019-05-20T13:55:07.986Z,10.17
2019-05-20T13:57:37.364Z,10.93
2019-05-20T14:00:07.176Z,15.03
2019-05-20T14:02:36.547Z,15.30
2019-05-20T14:05:06.859Z,17.03
2019-05-20T14:07:36.167Z,13.27
2019-05-20T14:10:05.596Z,13.70
2019-05-20T14:12:34.968Z,9.60
2019-05-20T14:15:04.568Z,10.70
2019-05-20T14:17:33.951Z,6.57
2019-05-20T14:20:03.593Z,7.40
2019-05-20T14:22:33.019Z,6.93
2019-05-20T14:25:02.561Z,14.50
2019-05-20T14:27:32.122Z,12.23
2019-05-20T14:30:01.883Z,4.63
2019-05-20T14:32:31.693Z,8.57
2019-05-20T14:35:01.243Z,7.00
2019-05-20T14:37:30.776Z,4.97
2019-05-20T14:40:00.449Z,4.47
2019-05-20T14:42:30.011Z,3.97
2019-05-20T14:44:59.572Z,3.60
2019-05-20T14:47:29.064Z,4.33
2019-05-20T14:49:58.618Z,3.97
2019-05-20T14:52:28.142Z,8.03
2019-05-20T14:54:57.706Z,5.10
2019-05-20T14:57:27.313Z,4.90
2019-05-20T14:59:56.886Z,5.27
2019-05-20T15:02:30.538Z,6.00
2019-05-20T15:04:57.503Z,9.77
2019-05-20T15:07:30.590Z,5.87
2019-05-20T15:09:58.030Z,8.57
2019-05-20T15:12:27.418Z,4.77
2019-05-20T15:14:56.778Z,4.80
2019-05-20T15:17:26.177Z,5.87
2019-05-20T15:19:55.547Z,5.93
2019-05-20T15:22:24.913Z,5.53
2019-05-20T15:24:54.286Z,5.07
2019-05-20T15:27:23.680Z,4.67
2019-05-20T15:29:53.051Z,4.33
2019-05-20T15:32:22.438Z,10.37
2019-05-20T15:34:51.817Z,6.47
2019-05-20T15:37:21.411Z,8.93
2019-05-20T15:39:50.917Z,11.47
2019-05-20T15:42:20.337Z,9.03
2019-05-20T15:44:49.706Z,7.90
2019-05-20T15:47:19.250Z,6.53
2019-05-20T15:49:48.673Z,6.57
2019-05-20T15:52:18.058Z,5.60
2019-05-20T15:54:47.486Z,6.13
2019-05-20T15:57:16.880Z,6.77
2019-05-20T15:59:46.798Z,4.50
2019-05-20T16:02:16.219Z,5.00
2019-05-20T16:04:45.589Z,6.60
2019-05-20T16:07:15.003Z,7.10
2019-05-20T16:09:44.379Z,6.83
2019-05-20T16:12:13.812Z,6.63
2019-05-20T16:14:43.147Z,7.07
2019-05-20T16:17:12.544Z,7.13
2019-05-20T16:19:41.899Z,5.37
2019-05-20T16:22:11.315Z,5.37
2019-05-20T16:24:40.674Z,4.93
2019-05-20T16:27:10.143Z,6.40
2019-05-20T16:29:39.448Z,4.70
2019-05-20T16:32:08.834Z,6.43
2019-05-20T16:34:38.200Z,5.93
2019-05-20T16:37:07.643Z,7.23
2019-05-20T16:39:37.106Z,7.33
2019-05-20T16:42:06.555Z,6.53
2019-05-20T16:44:36.089Z,8.23
2019-05-20T16:47:05.626Z,10.47
2019-05-20T16:49:35.223Z,9.73
2019-05-20T16:52:04.861Z,13.20
2019-05-20T16:54:34.258Z,9.40
2019-05-20T16:57:03.603Z,6.63
2019-05-20T16:59:33.032Z,7.87
2019-05-20T17:02:02.360Z,9.87
2019-05-20T17:04:31.750Z,6.97
2019-05-20T17:07:01.262Z,9.63
2019-05-20T17:09:30.853Z,8.20
2019-05-20T17:12:00.396Z,8.10
2019-05-20T17:14:29.987Z,7.00
2019-05-20T17:16:59.351Z,7.30
2019-05-20T17:19:28.741Z,7.80
2019-05-20T17:21:58.112Z,10.37
2019-05-20T17:24:27.523Z,9.47
2019-05-20T17:26:56.870Z,7.00
2019-05-20T17:29:26.575Z,8.10
2019-05-20T17:31:56.110Z,6.27
2019-05-20T17:34:25.500Z,6.40
2019-05-20T17:36:54.875Z,9.60
2019-05-20T17:39:24.322Z,7.27
2019-05-20T17:41:53.651Z,6.90
2019-05-20T17:44:23.055Z,5.40
2019-05-20T17:46:52.408Z,5.30
2019-05-20T17:49:21.798Z,5.90
2019-05-20T17:51:51.359Z,5.43
2019-05-20T17:54:20.751Z,5.87
2019-05-20T17:56:50.205Z,5.87
2019-05-20T17:59:19.583Z,6.10
2019-05-20T18:01:48.954Z,6.07
2019-05-20T18:04:18.343Z,11.33
2019-05-20T18:06:47.708Z,8.33
2019-05-20T18:09:17.390Z,6.57
2019-05-20T18:11:46.767Z,8.93
2019-05-20T18:14:16.154Z,5.67
2019-05-20T18:16:45.518Z,4.43
2019-05-20T18:19:14.918Z,5.97
2019-05-20T18:21:44.283Z,7.53
2019-05-20T18:24:13.675Z,5.23
2019-05-20T18:26:43.034Z,5.40
2019-05-20T18:29:12.419Z,5.17
2019-05-20T18:31:41.788Z,4.13
2019-05-20T18:34:11.179Z,5.73
2019-05-20T18:36:40.547Z,3.67
2019-05-20T18:39:09.931Z,3.43
2019-05-20T18:41:39.339Z,4.00
2019-05-20T18:44:08.731Z,4.90
2019-05-20T18:46:38.095Z,3.13
2019-05-20T18:49:07.499Z,5.60
2019-05-20T18:51:36.880Z,5.77
2019-05-20T18:54:06.271Z,3.80
2019-05-20T18:56:35.631Z,5.20
2019-05-20T18:59:05.033Z,5.00
2019-05-20T19:01:46.122Z,6.43
2019-05-20T19:04:05.452Z,6.33
2019-05-20T19:06:34.817Z,6.17
2019-05-20T19:09:04.536Z,7.57
2019-05-20T19:11:34.105Z,6.70
2019-05-20T19:14:03.489Z,4.40
2019-05-20T19:16:32.859Z,5.90
2019-05-20T19:19:02.241Z,6.10
2019-05-20T19:21:31.636Z,7.23
2019-05-20T19:24:01.000Z,5.40
2019-05-20T19:26:30.580Z,4.67
2019-05-20T19:29:00.206Z,5.80
2019-05-20T19:31:29.737Z,9.20
2019-05-20T19:33:59.119Z,3.90
2019-05-20T19:36:28.498Z,4.97
2019-05-20T19:38:57.949Z,3.03
2019-05-20T19:41:27.375Z,2.73
2019-05-20T19:43:56.962Z,2.70
2019-05-20T19:46:26.461Z,3.47
2019-05-20T19:48:56.065Z,3.10
2019-05-20T19:51:25.655Z,4.67
2019-05-20T19:53:55.298Z,4.23
2019-05-20T19:56:24.903Z,6.33
2019-05-20T19:58:54.494Z,5.90
2019-05-20T20:01:24.020Z,6.43
2019-05-20T20:03:53.598Z,5.60
2019-05-20T20:06:23.263Z,6.50
2019-05-20T20:08:52.832Z,7.50
2019-05-20T20:11:22.455Z,6.60
2019-05-20T20:13:52.188Z,8.67
2019-05-20T20:16:21.809Z,6.70
2019-05-20T20:18:51.359Z,7.60
2019-05-20T20:21:20.943Z,8.80
2019-05-20T20:23:50.525Z,8.93
2019-05-20T20:26:20.080Z,12.43
2019-05-20T20:28:49.680Z,20.93
2019-05-20T20:31:19.297Z,11.43
2019-05-20T20:33:48.853Z,11.90
2019-05-20T20:36:21.241Z,10.20
2019-05-20T20:38:49.657Z,8.20
2019-05-20T20:41:19.308Z,10.93
2019-05-20T20:43:48.888Z,12.47
2019-05-20T20:46:18.492Z,11.73
2019-05-20T20:48:48.100Z,10.90
2019-05-20T20:51:17.720Z,12.10
2019-05-20T20:53:47.075Z,11.77
2019-05-20T20:56:24.865Z,12.67
2019-05-20T20:58:47.475Z,13.63
2019-05-20T21:01:16.868Z,12.07
2019-05-20T21:03:46.234Z,10.90
2019-05-20T21:06:15.648Z,15.17
2019-05-20T21:08:45.015Z,15.30
2019-05-20T21:11:14.404Z,15.97
2019-05-20T21:13:43.813Z,16.50
2019-05-20T21:16:13.255Z,14.70
2019-05-20T21:18:42.623Z,14.83
2019-05-20T21:21:12.027Z,16.50
2019-05-20T21:23:41.403Z,16.03
2019-05-20T21:26:10.839Z,14.53
2019-05-20T21:28:40.208Z,16.43
2019-05-20T21:31:09.604Z,14.77
2019-05-20T21:33:38.975Z,16.53
2019-05-20T21:36:08.362Z,16.83
2019-05-20T21:38:37.743Z,18.30
2019-05-20T21:41:07.154Z,20.30
2019-05-20T21:43:36.558Z,18.03
2019-05-20T21:46:05.954Z,14.87
2019-05-20T21:48:35.331Z,13.30
2019-05-20T21:51:04.719Z,12.97
2019-05-20T21:53:34.092Z,12.20
2019-05-20T21:56:03.562Z,12.10
2019-05-20T21:58:32.930Z,11.93
2019-05-20T22:01:02.618Z,12.40
2019-05-20T22:03:31.974Z,9.90
2019-05-20T22:06:01.419Z,14.37
2019-05-20T22:08:30.812Z,11.20
2019-05-20T22:11:00.198Z,11.90
2019-05-20T22:13:29.571Z,13.40
2019-05-20T22:15:58.977Z,12.33
2019-05-20T22:18:28.339Z,9.90
2019-05-20T22:20:57.721Z,15.03
2019-05-20T22:23:32.388Z,12.80
2019-05-20T22:26:01.802Z,12.93
2019-05-20T22:28:31.130Z,9.97
2019-05-20T22:31:00.522Z,10.50
2019-05-20T22:33:41.027Z,10.00
2019-05-20T22:36:00.956Z,9.73
2019-05-20T22:38:30.325Z,8.83
2019-05-20T22:40:59.773Z,8.20
2019-05-20T22:43:29.147Z,7.10
2019-05-20T22:45:58.539Z,7.60
2019-05-20T22:48:27.903Z,8.33
2019-05-20T22:50:57.294Z,8.10
2019-05-20T22:53:26.665Z,7.63
2019-05-20T22:55:56.059Z,8.60
2019-05-20T22:58:25.417Z,7.10
2019-05-20T23:00:54.818Z,7.90
2019-05-20T23:03:24.256Z,7.40
2019-05-20T23:05:53.643Z,8.03
2019-05-20T23:08:23.091Z,6.93
2019-05-20T23:10:52.770Z,6.03
2019-05-20T23:13:22.131Z,5.63
2019-05-20T23:15:51.575Z,5.43
2019-05-20T23:18:20.995Z,7.13
2019-05-20T23:20:50.391Z,4.77
2019-05-20T23:23:19.751Z,5.10
2019-05-20T23:25:52.276Z,6.10
2019-05-20T23:28:20.150Z,5.53
2019-05-20T23:30:49.528Z,5.60
2019-05-20T23:33:18.906Z,5.27
2019-05-20T23:35:48.266Z,6.10
2019-05-20T23:38:17.652Z,5.30
2019-05-20T23:40:47.037Z,6.50
2019-05-20T23:43:16.463Z,5.90
2019-05-20T23:45:45.818Z,6.10
2019-05-20T23:48:15.210Z,6.10
2019-05-20T23:50:44.572Z,5.30
2019-05-20T23:53:13.950Z,5.63
2019-05-20T23:55:43.431Z,5.17
2019-05-20T23:58:12.822Z,4.80
